Lang, Robert
CanadaManBorn 19561995 – 2013Runner id 40327
Events
79
78 race dates
Best pace
13.147
km/h · 1998
Best finish
4th
of 536 · 1998
Distance raced
5,122
km · splits not double-counted
Pace over time
km/h · higher is faster
Pace over time: 79 races from 1995 to 2013, ranging from 5.05 to 13.77 kilometres per hour, where higher is faster. A second, age-graded series is drawn above it; the gap between the two is the age credit.
- Actual pace
- Age-graded pace
Results
| Date | Event | Distance | Result | Pace km/h | Placing |
|---|---|---|---|---|---|
| 2002-11-09 | Tanks Alot 50KUnited States | 50km | 4:59:20 h | 10.022 | 3/17 |
| 2003-03-15 | Chuckanut 50KUnited States | 50km | 4:25:02 h | 11.319 | 2/165 |
| 2003-03-22 | 50mi | 7:20:42 h | 10.955 | 3/51 | |
| 2003-04-12 | Diez Vista 50K Trail RunCanada | 50km | 4:53:51 h | 10.209 | 4/138 |
| 2003-07-12 | 30mi | 5:48:59 h | 8.301 | 10/163 | |
| 2003-08-02 | 50mi | 8:56:40 h | 8.996 | 41/132 | |
| 2003-09-20 | Cle Elum Ridge 50kUnited States | 50km | 5:13:09 h | 9.580 | 5/89 |
| 2004-04-10 | Diez Vista 50K Trail RunCanada | 50km | 5:08:55 h | 9.711 | 6/118 |
| 2004-05-15 | Keremeos Kruncher 50kCanada | 50km | 5:13:51 h | 9.559 | 2/41 |
| 2004-07-04 | 323km | 33:01:59 h | 9.778 | 19/63 | |
| 2004-07-04 | 45km | 4:08:55 h | 10.847 | 18/76 | |
| 2004-07-05 | 47km | 4:36:13 h | 10.209 | 25/75 | |
| 2004-07-08 | 53km | 5:20:50 h | 9.912 | 16/68 | |
| 2004-07-09 | 49km | 5:22:40 h | 9.112 | 16/66 | |
| 2004-07-10 | 50km | 5:12:23 h | 9.604 | 18/64 | |
| 2004-09-18 | Cle Elum Ridge 50kUnited States | 50km | 9:39:22 h | 5.178 | 89/97 |
| 2004-10-02 | Baker Lake 50K Ultra Trail RunUnited States | 50km | 4:42:15 h | 10.629 | 6/67 |
| 2005-04-09 | Diez Vista 50K Trail RunCanada | 50km | 5:28:26 h | 9.134 | 17/129 |
| 2005-09-19 | Cle Elum Ridge 50kUnited States | 50km | 5:18:48 h | 9.410 | 5/69 |
| 2006-04-23 | 50km | 4:04:54 h | 12.250 | 3/49 | |
| 2006-05-20 | Watershed Preserve 12 Hr Trail RaceUnited States | 12h | 60.559 km | 5.047 | 19/30 |
| 2006-06-03 | 50km | 6:06:06 h | 8.194 | 1/15 | |
| 2008-04-05 | Diez Vista 50K Trail RunCanada | 50km | 5:09:36 h | 9.690 | 11/133 |
| 2008-07-06 | 350km | 47:50:14 h | 7.316 | 35/62 | |
| 2009-04-18 | Diez Vista 50K Trail RunCanada | 50km | 5:08:49 h | 9.715 | 8/116 |
| 2010-05-15 | 55km | 5:52:12 h | 9.370 | 1/17 | |
| 2010-06-20 | 50km | 5:08:16 h | 9.732 | 8/32 | |
| 2011-04-09 | 50km | 5:56:55 h | 8.405 | 21/99 | |
| 2013-04-06 | 50km | 5:26:58 h | 9.175 | 13/119 |
Showing 51–79 of 79